This is the latest recevied weather packets stored in our database for station/object KD8ZLZ. If no packets are shown the sender has not sent any weather packets the latest 10 day(s).
| Time | Temp. | Humidity | Pressure | Rain* | Wind** | Luminosity | Snow |
|---|---|---|---|---|---|---|---|
| 1777878032 | 9.44° C | 68% | 1008.3 hPa | 0 mm | - | - | - |
| 1777877132 | 10° C | 68% | 1008.7 hPa | 0 mm | - | - | - |
| 1777875333 | 10° C | 67% | 1009 hPa | 0 mm | - | - | - |
| 1777875033 | 10° C | 66% | 1009 hPa | 0 mm | - | - | - |
| 1777873832 | 10.56° C | 65% | 1009.3 hPa | 0 mm | - | - | - |
| 1777872933 | 10.56° C | 64% | 1009.7 hPa | 0 mm | - | - | - |
| 1777870853 | 11.11° C | 63% | 1009.6 hPa | 0 mm | - | - | - |
| 1777870533 | 11.11° C | 63% | 1010 hPa | 0 mm | - | - | - |
| 1777869332 | 11.11° C | 62% | 1010 hPa | 0 mm | - | - | - |
| 1777865452 | 11.11° C | 62% | 1010.6 hPa | 0 mm | - | - | - |
| 1777864832 | 11.11° C | 63% | 1010.6 hPa | 0 mm | - | - | - |
| 1777864232 | 11.11° C | 64% | 1010.6 hPa | 0 mm | - | - | - |
| 1777863632 | 11.11° C | 64% | 1011 hPa | 0 mm | - | - | - |
| 1777861832 | 10.56° C | 65% | 1010.8 hPa | 0 mm | - | - | - |
| 1777861232 | 10.56° C | 65% | 1010.8 hPa | 0 mm | - | - | - |
| 1777857033 | 11.67° C | 60% | 1010.7 hPa | 0 mm | - | - | - |
| 1777853752 | 12.78° C | 57% | 1010.6 hPa | 0 mm | - | - | - |
| 1777852232 | 13.89° C | 54% | 1010.6 hPa | 0 mm | - | - | - |
| 1777851932 | 13.89° C | 54% | 1010.3 hPa | 0 mm | - | - | - |
| 1777851032 | 14.44° C | 54% | 1010.3 hPa | 0 mm | - | - | - |
| 1777849232 | 16.11° C | 43% | 1010.6 hPa | 0 mm | - | - | - |
| 1777846232 | 18.33° C | 39% | 1010.7 hPa | 0 mm | - | - | - |
| 1777845932 | 18.33° C | 38% | 1010.7 hPa | 0 mm | - | - | - |
| 1777845032 | 17.78° C | 38% | 1010.7 hPa | 0 mm | - | - | - |
| 1777841132 | 18.33° C | 37% | 1011 hPa | 0 mm | - | - | - |
* Rain latest hour (hover to see other rain measurements)
** Current wind speed in m/s (hover to see current wind gust speed)